sensor_id;sensor_type;location;lat;lon;timestamp;temperature;humidity
76384;SHT30;65204;48.606;7.598;2023-10-19T00:00:49;14.80;75.66
76384;SHT30;65204;48.606;7.598;2023-10-19T00:01:21;14.81;75.71
76384;SHT30;65204;48.606;7.598;2023-10-19T00:01:55;14.81;75.70
76384;SHT30;65204;48.606;7.598;2023-10-19T00:02:28;14.81;75.79
76384;SHT30;65204;48.606;7.598;2023-10-19T00:02:58;14.81;75.66
76384;SHT30;65204;48.606;7.598;2023-10-19T00:03:29;14.83;75.66
76384;SHT30;65204;48.606;7.598;2023-10-19T00:04:02;14.84;75.67
76384;SHT30;65204;48.606;7.598;2023-10-19T00:04:33;14.84;75.50
76384;SHT30;65204;48.606;7.598;2023-10-19T00:05:06;14.87;75.67
76384;SHT30;65204;48.606;7.598;2023-10-19T00:05:43;14.85;75.70
76384;SHT30;65204;48.606;7.598;2023-10-19T00:06:15;14.88;75.65
76384;SHT30;65204;48.606;7.598;2023-10-19T00:06:48;14.87;75.69
76384;SHT30;65204;48.606;7.598;2023-10-19T00:07:21;14.90;75.77
76384;SHT30;65204;48.606;7.598;2023-10-19T00:07:51;14.88;75.68
76384;SHT30;65204;48.606;7.598;2023-10-19T00:08:23;14.91;75.63
76384;SHT30;65204;48.606;7.598;2023-10-19T00:08:54;14.88;75.61
76384;SHT30;65204;48.606;7.598;2023-10-19T00:09:24;14.92;75.65
76384;SHT30;65204;48.606;7.598;2023-10-19T00:09:56;14.91;75.59
76384;SHT30;65204;48.606;7.598;2023-10-19T00:10:27;14.91;75.57
76384;SHT30;65204;48.606;7.598;2023-10-19T00:11:05;14.94;75.62
76384;SHT30;65204;48.606;7.598;2023-10-19T00:11:38;14.92;75.63
76384;SHT30;65204;48.606;7.598;2023-10-19T00:12:10;14.91;75.65
76384;SHT30;65204;48.606;7.598;2023-10-19T00:12:41;14.94;75.65
76384;SHT30;65204;48.606;7.598;2023-10-19T00:13:13;14.94;75.72
76384;SHT30;65204;48.606;7.598;2023-10-19T00:13:43;14.94;75.66
76384;SHT30;65204;48.606;7.598;2023-10-19T00:14:14;14.94;75.67
76384;SHT30;65204;48.606;7.598;2023-10-19T00:14:47;14.95;75.75
76384;SHT30;65204;48.606;7.598;2023-10-19T00:15:17;14.94;75.75
76384;SHT30;65204;48.606;7.598;2023-10-19T00:15:53;14.97;75.78
76384;SHT30;65204;48.606;7.598;2023-10-19T00:16:23;14.97;75.70
76384;SHT30;65204;48.606;7.598;2023-10-19T00:16:59;14.98;75.68
76384;SHT30;65204;48.606;7.598;2023-10-19T00:17:41;14.97;75.70
76384;SHT30;65204;48.606;7.598;2023-10-19T00:18:15;14.95;75.63
76384;SHT30;65204;48.606;7.598;2023-10-19T00:18:46;14.98;75.58
76384;SHT30;65204;48.606;7.598;2023-10-19T00:19:18;14.98;75.54
76384;SHT30;65204;48.606;7.598;2023-10-19T00:19:49;14.97;75.61
76384;SHT30;65204;48.606;7.598;2023-10-19T00:20:38;14.95;75.76
76384;SHT30;65204;48.606;7.598;2023-10-19T00:21:11;14.97;75.74
76384;SHT30;65204;48.606;7.598;2023-10-19T00:21:50;14.92;75.95
76384;SHT30;65204;48.606;7.598;2023-10-19T00:22:20;14.94;75.88
76384;SHT30;65204;48.606;7.598;2023-10-19T00:22:51;14.95;75.86
76384;SHT30;65204;48.606;7.598;2023-10-19T00:23:23;14.94;75.90
76384;SHT30;65204;48.606;7.598;2023-10-19T00:24:03;14.95;75.90
76384;SHT30;65204;48.606;7.598;2023-10-19T00:24:35;14.92;75.85
76384;SHT30;65204;48.606;7.598;2023-10-19T00:25:06;14.95;75.82
76384;SHT30;65204;48.606;7.598;2023-10-19T00:25:40;14.95;75.89
76384;SHT30;65204;48.606;7.598;2023-10-19T00:26:15;14.92;75.84
76384;SHT30;65204;48.606;7.598;2023-10-19T00:26:47;14.95;75.86
76384;SHT30;65204;48.606;7.598;2023-10-19T00:27:25;14.95;75.86
76384;SHT30;65204;48.606;7.598;2023-10-19T00:27:57;14.95;75.86
76384;SHT30;65204;48.606;7.598;2023-10-19T00:28:30;14.95;75.80
76384;SHT30;65204;48.606;7.598;2023-10-19T00:29:04;14.95;75.72
76384;SHT30;65204;48.606;7.598;2023-10-19T00:29:54;14.97;75.68
76384;SHT30;65204;48.606;7.598;2023-10-19T00:30:36;14.95;75.76
76384;SHT30;65204;48.606;7.598;2023-10-19T00:31:06;14.98;75.73
76384;SHT30;65204;48.606;7.598;2023-10-19T00:31:41;14.97;75.77
76384;SHT30;65204;48.606;7.598;2023-10-19T00:32:11;15.00;75.74
76384;SHT30;65204;48.606;7.598;2023-10-19T00:32:44;14.98;75.71
76384;SHT30;65204;48.606;7.598;2023-10-19T00:33:16;14.98;75.63
76384;SHT30;65204;48.606;7.598;2023-10-19T00:33:50;15.02;75.67
76384;SHT30;65204;48.606;7.598;2023-10-19T00:34:28;14.98;75.71
76384;SHT30;65204;48.606;7.598;2023-10-19T00:35:01;15.00;75.84
76384;SHT30;65204;48.606;7.598;2023-10-19T00:35:41;15.01;75.74
76384;SHT30;65204;48.606;7.598;2023-10-19T00:36:29;15.00;75.91
76384;SHT30;65204;48.606;7.598;2023-10-19T00:37:01;15.01;75.77
76384;SHT30;65204;48.606;7.598;2023-10-19T00:37:37;15.00;75.94
76384;SHT30;65204;48.606;7.598;2023-10-19T00:38:13;15.00;75.94
76384;SHT30;65204;48.606;7.598;2023-10-19T00:39:02;14.98;76.20
76384;SHT30;65204;48.606;7.598;2023-10-19T00:39:44;14.97;76.03
76384;SHT30;65204;48.606;7.598;2023-10-19T00:40:18;14.97;76.06
76384;SHT30;65204;48.606;7.598;2023-10-19T00:41:06;14.94;76.16
76384;SHT30;65204;48.606;7.598;2023-10-19T00:41:36;14.95;76.08
76384;SHT30;65204;48.606;7.598;2023-10-19T00:42:07;14.98;76.01
76384;SHT30;65204;48.606;7.598;2023-10-19T00:42:38;14.97;76.07
76384;SHT30;65204;48.606;7.598;2023-10-19T00:43:29;14.95;76.06
76384;SHT30;65204;48.606;7.598;2023-10-19T00:44:02;14.94;76.21
76384;SHT30;65204;48.606;7.598;2023-10-19T00:44:37;14.98;76.22
76384;SHT30;65204;48.606;7.598;2023-10-19T00:45:14;14.95;76.23
76384;SHT30;65204;48.606;7.598;2023-10-19T00:45:45;14.95;76.24
76384;SHT30;65204;48.606;7.598;2023-10-19T00:46:20;14.98;76.13
76384;SHT30;65204;48.606;7.598;2023-10-19T00:46:51;14.97;76.26
76384;SHT30;65204;48.606;7.598;2023-10-19T00:47:34;14.97;76.22
76384;SHT30;65204;48.606;7.598;2023-10-19T00:48:10;14.98;76.07
76384;SHT30;65204;48.606;7.598;2023-10-19T00:49:02;14.97;76.10
76384;SHT30;65204;48.606;7.598;2023-10-19T00:49:35;14.97;76.26
76384;SHT30;65204;48.606;7.598;2023-10-19T00:50:09;14.98;76.13
76384;SHT30;65204;48.606;7.598;2023-10-19T00:50:47;14.98;76.24
76384;SHT30;65204;48.606;7.598;2023-10-19T00:51:25;14.98;76.22
76384;SHT30;65204;48.606;7.598;2023-10-19T00:52:05;15.00;76.22
76384;SHT30;65204;48.606;7.598;2023-10-19T00:52:43;14.98;76.32
76384;SHT30;65204;48.606;7.598;2023-10-19T00:53:16;14.97;76.28
76384;SHT30;65204;48.606;7.598;2023-10-19T00:53:46;15.00;76.28
76384;SHT30;65204;48.606;7.598;2023-10-19T00:54:41;14.97;76.10
76384;SHT30;65204;48.606;7.598;2023-10-19T00:55:36;14.97;76.25
76384;SHT30;65204;48.606;7.598;2023-10-19T00:56:14;14.98;76.29
76384;SHT30;65204;48.606;7.598;2023-10-19T00:56:48;15.00;76.27
76384;SHT30;65204;48.606;7.598;2023-10-19T00:57:19;15.00;76.15
76384;SHT30;65204;48.606;7.598;2023-10-19T00:58:02;15.00;76.18
76384;SHT30;65204;48.606;7.598;2023-10-19T00:58:39;15.02;76.13
76384;SHT30;65204;48.606;7.598;2023-10-19T00:59:12;15.02;76.19
76384;SHT30;65204;48.606;7.598;2023-10-19T00:59:44;15.01;76.19
76384;SHT30;65204;48.606;7.598;2023-10-19T01:00:41;15.01;76.41
76384;SHT30;65204;48.606;7.598;2023-10-19T01:01:15;15.01;76.41
76384;SHT30;65204;48.606;7.598;2023-10-19T01:01:50;15.00;76.34
76384;SHT30;65204;48.606;7.598;2023-10-19T01:02:21;15.01;76.38
76384;SHT30;65204;48.606;7.598;2023-10-19T01:03:00;15.02;76.39
76384;SHT30;65204;48.606;7.598;2023-10-19T01:04:34;15.00;76.63
76384;SHT30;65204;48.606;7.598;2023-10-19T01:05:04;14.98;76.60
76384;SHT30;65204;48.606;7.598;2023-10-19T01:05:36;15.00;76.57
76384;SHT30;65204;48.606;7.598;2023-10-19T01:06:06;15.00;76.57
76384;SHT30;65204;48.606;7.598;2023-10-19T01:06:41;15.00;76.67
76384;SHT30;65204;48.606;7.598;2023-10-19T01:07:14;15.01;76.57
76384;SHT30;65204;48.606;7.598;2023-10-19T01:07:57;15.02;76.60
76384;SHT30;65204;48.606;7.598;2023-10-19T01:08:31;15.04;76.56
76384;SHT30;65204;48.606;7.598;2023-10-19T01:09:17;15.04;76.50
76384;SHT30;65204;48.606;7.598;2023-10-19T01:09:50;15.04;76.62
76384;SHT30;65204;48.606;7.598;2023-10-19T01:10:23;15.05;76.49
76384;SHT30;65204;48.606;7.598;2023-10-19T01:10:54;15.04;76.54
76384;SHT30;65204;48.606;7.598;2023-10-19T01:11:24;15.04;76.60
76384;SHT30;65204;48.606;7.598;2023-10-19T01:11:58;15.08;76.58
76384;SHT30;65204;48.606;7.598;2023-10-19T01:12:32;15.05;76.57
76384;SHT30;65204;48.606;7.598;2023-10-19T01:13:02;15.08;76.54
76384;SHT30;65204;48.606;7.598;2023-10-19T01:13:36;15.10;76.56
76384;SHT30;65204;48.606;7.598;2023-10-19T01:14:19;15.08;76.33
76384;SHT30;65204;48.606;7.598;2023-10-19T01:15:53;15.07;76.59
76384;SHT30;65204;48.606;7.598;2023-10-19T01:16:24;15.08;76.53
76384;SHT30;65204;48.606;7.598;2023-10-19T01:16:57;15.11;76.55
76384;SHT30;65204;48.606;7.598;2023-10-19T01:17:27;15.10;76.41
76384;SHT30;65204;48.606;7.598;2023-10-19T01:18:01;15.12;76.55
76384;SHT30;65204;48.606;7.598;2023-10-19T01:18:32;15.11;76.54
76384;SHT30;65204;48.606;7.598;2023-10-19T01:19:03;15.15;76.36
76384;SHT30;65204;48.606;7.598;2023-10-19T01:19:36;15.14;76.42
76384;SHT30;65204;48.606;7.598;2023-10-19T01:20:48;15.15;76.38
76384;SHT30;65204;48.606;7.598;2023-10-19T01:21:24;15.17;76.24
76384;SHT30;65204;48.606;7.598;2023-10-19T01:22:15;15.17;76.45
76384;SHT30;65204;48.606;7.598;2023-10-19T01:22:57;15.18;76.47
76384;SHT30;65204;48.606;7.598;2023-10-19T01:23:37;15.15;76.51
76384;SHT30;65204;48.606;7.598;2023-10-19T01:24:09;15.20;76.40
76384;SHT30;65204;48.606;7.598;2023-10-19T01:24:42;15.21;76.49
76384;SHT30;65204;48.606;7.598;2023-10-19T01:25:13;15.18;76.39
76384;SHT30;65204;48.606;7.598;2023-10-19T01:25:52;15.21;76.37
76384;SHT30;65204;48.606;7.598;2023-10-19T01:26:26;15.21;76.43
76384;SHT30;65204;48.606;7.598;2023-10-19T01:26:56;15.20;76.47
76384;SHT30;65204;48.606;7.598;2023-10-19T01:27:27;15.21;76.36
76384;SHT30;65204;48.606;7.598;2023-10-19T01:27:59;15.21;76.41
76384;SHT30;65204;48.606;7.598;2023-10-19T01:28:34;15.21;76.40
76384;SHT30;65204;48.606;7.598;2023-10-19T01:29:10;15.21;76.44
76384;SHT30;65204;48.606;7.598;2023-10-19T01:29:47;15.22;76.56
76384;SHT30;65204;48.606;7.598;2023-10-19T01:30:22;15.24;76.62
76384;SHT30;65204;48.606;7.598;2023-10-19T01:30:55;15.24;76.44
76384;SHT30;65204;48.606;7.598;2023-10-19T01:31:25;15.24;76.39
76384;SHT30;65204;48.606;7.598;2023-10-19T01:31:58;15.25;76.37
76384;SHT30;65204;48.606;7.598;2023-10-19T01:32:55;15.24;76.48
76384;SHT30;65204;48.606;7.598;2023-10-19T01:33:25;15.24;76.36
76384;SHT30;65204;48.606;7.598;2023-10-19T01:33:57;15.25;76.25
76384;SHT30;65204;48.606;7.598;2023-10-19T01:34:28;15.25;76.25
76384;SHT30;65204;48.606;7.598;2023-10-19T01:34:58;15.25;76.24
76384;SHT30;65204;48.606;7.598;2023-10-19T01:35:29;15.25;76.24
76384;SHT30;65204;48.606;7.598;2023-10-19T01:36:19;15.27;76.39
76384;SHT30;65204;48.606;7.598;2023-10-19T01:36:52;15.25;76.37
76384;SHT30;65204;48.606;7.598;2023-10-19T01:37:24;15.25;76.26
76384;SHT30;65204;48.606;7.598;2023-10-19T01:37:55;15.28;76.31
76384;SHT30;65204;48.606;7.598;2023-10-19T01:38:25;15.27;76.32
76384;SHT30;65204;48.606;7.598;2023-10-19T01:38:57;15.28;76.25
76384;SHT30;65204;48.606;7.598;2023-10-19T01:39:32;15.27;76.23
76384;SHT30;65204;48.606;7.598;2023-10-19T01:40:06;15.31;76.14
76384;SHT30;65204;48.606;7.598;2023-10-19T01:40:38;15.30;76.20
76384;SHT30;65204;48.606;7.598;2023-10-19T01:41:16;15.27;76.23
76384;SHT30;65204;48.606;7.598;2023-10-19T01:41:50;15.31;76.26
76384;SHT30;65204;48.606;7.598;2023-10-19T01:42:21;15.28;76.26
76384;SHT30;65204;48.606;7.598;2023-10-19T01:42:52;15.28;76.26
76384;SHT30;65204;48.606;7.598;2023-10-19T01:43:22;15.30;76.14
76384;SHT30;65204;48.606;7.598;2023-10-19T01:43:55;15.28;76.14
76384;SHT30;65204;48.606;7.598;2023-10-19T01:44:32;15.28;76.28
76384;SHT30;65204;48.606;7.598;2023-10-19T01:45:06;15.31;76.46
76384;SHT30;65204;48.606;7.598;2023-10-19T01:45:37;15.28;76.38
76384;SHT30;65204;48.606;7.598;2023-10-19T01:46:08;15.31;76.30
76384;SHT30;65204;48.606;7.598;2023-10-19T01:46:58;15.28;76.42
76384;SHT30;65204;48.606;7.598;2023-10-19T01:47:30;15.30;76.36
76384;SHT30;65204;48.606;7.598;2023-10-19T01:48:01;15.30;76.40
76384;SHT30;65204;48.606;7.598;2023-10-19T01:48:31;15.30;76.35
76384;SHT30;65204;48.606;7.598;2023-10-19T01:49:09;15.31;76.26
76384;SHT30;65204;48.606;7.598;2023-10-19T01:49:39;15.32;76.23
76384;SHT30;65204;48.606;7.598;2023-10-19T01:50:10;15.32;76.24
76384;SHT30;65204;48.606;7.598;2023-10-19T01:50:49;15.30;76.41
76384;SHT30;65204;48.606;7.598;2023-10-19T01:51:22;15.34;76.37
76384;SHT30;65204;48.606;7.598;2023-10-19T01:51:54;15.32;76.43
76384;SHT30;65204;48.606;7.598;2023-10-19T01:52:25;15.32;76.34
76384;SHT30;65204;48.606;7.598;2023-10-19T01:52:55;15.34;76.41
76384;SHT30;65204;48.606;7.598;2023-10-19T01:53:25;15.34;76.40
76384;SHT30;65204;48.606;7.598;2023-10-19T01:54:17;15.34;76.26
76384;SHT30;65204;48.606;7.598;2023-10-19T01:54:48;15.34;76.34
76384;SHT30;65204;48.606;7.598;2023-10-19T01:55:18;15.32;76.28
76384;SHT30;65204;48.606;7.598;2023-10-19T01:55:51;15.32;76.18
76384;SHT30;65204;48.606;7.598;2023-10-19T01:56:27;15.35;76.03
76384;SHT30;65204;48.606;7.598;2023-10-19T01:56:58;15.35;76.09
76384;SHT30;65204;48.606;7.598;2023-10-19T01:57:29;15.36;76.11
76384;SHT30;65204;48.606;7.598;2023-10-19T01:57:59;15.36;75.99
76384;SHT30;65204;48.606;7.598;2023-10-19T01:58:29;15.36;75.95
76384;SHT30;65204;48.606;7.598;2023-10-19T01:59:00;15.38;76.03
76384;SHT30;65204;48.606;7.598;2023-10-19T01:59:31;15.41;76.03
76384;SHT30;65204;48.606;7.598;2023-10-19T02:00:05;15.38;76.03
76384;SHT30;65204;48.606;7.598;2023-10-19T02:00:41;15.39;75.92
76384;SHT30;65204;48.606;7.598;2023-10-19T02:01:15;15.38;75.83
76384;SHT30;65204;48.606;7.598;2023-10-19T02:01:59;15.39;76.01
76384;SHT30;65204;48.606;7.598;2023-10-19T02:02:29;15.41;76.06
76384;SHT30;65204;48.606;7.598;2023-10-19T02:03:11;15.36;76.12
76384;SHT30;65204;48.606;7.598;2023-10-19T02:03:42;15.35;76.13
76384;SHT30;65204;48.606;7.598;2023-10-19T02:04:19;15.34;76.15
76384;SHT30;65204;48.606;7.598;2023-10-19T02:04:51;15.35;76.07
76384;SHT30;65204;48.606;7.598;2023-10-19T02:05:23;15.35;76.00
76384;SHT30;65204;48.606;7.598;2023-10-19T02:05:59;15.34;75.91
76384;SHT30;65204;48.606;7.598;2023-10-19T02:06:32;15.32;76.03
76384;SHT30;65204;48.606;7.598;2023-10-19T02:07:10;15.32;76.19
76384;SHT30;65204;48.606;7.598;2023-10-19T02:07:47;15.34;76.09
76384;SHT30;65204;48.606;7.598;2023-10-19T02:08:18;15.31;76.05
76384;SHT30;65204;48.606;7.598;2023-10-19T02:08:58;15.32;76.13
76384;SHT30;65204;48.606;7.598;2023-10-19T02:09:47;15.28;76.17
76384;SHT30;65204;48.606;7.598;2023-10-19T02:10:18;15.30;76.15
76384;SHT30;65204;48.606;7.598;2023-10-19T02:10:48;15.31;76.24
76384;SHT30;65204;48.606;7.598;2023-10-19T02:11:20;15.28;76.17
76384;SHT30;65204;48.606;7.598;2023-10-19T02:11:56;15.28;76.19
76384;SHT30;65204;48.606;7.598;2023-10-19T02:12:27;15.28;76.25
76384;SHT30;65204;48.606;7.598;2023-10-19T02:12:57;15.27;76.21
76384;SHT30;65204;48.606;7.598;2023-10-19T02:13:28;15.27;76.13
76384;SHT30;65204;48.606;7.598;2023-10-19T02:13:58;15.30;76.15
76384;SHT30;65204;48.606;7.598;2023-10-19T02:14:34;15.27;76.17
76384;SHT30;65204;48.606;7.598;2023-10-19T02:15:05;15.31;76.14
76384;SHT30;65204;48.606;7.598;2023-10-19T02:15:35;15.28;76.12
76384;SHT30;65204;48.606;7.598;2023-10-19T02:16:06;15.30;76.11
76384;SHT30;65204;48.606;7.598;2023-10-19T02:16:37;15.28;76.11
76384;SHT30;65204;48.606;7.598;2023-10-19T02:17:08;15.31;76.03
76384;SHT30;65204;48.606;7.598;2023-10-19T02:17:39;15.30;76.02
76384;SHT30;65204;48.606;7.598;2023-10-19T02:18:10;15.31;76.06
76384;SHT30;65204;48.606;7.598;2023-10-19T02:18:42;15.34;76.09
76384;SHT30;65204;48.606;7.598;2023-10-19T02:19:12;15.31;75.99
76384;SHT30;65204;48.606;7.598;2023-10-19T02:19:43;15.31;76.02
76384;SHT30;65204;48.606;7.598;2023-10-19T02:20:13;15.31;75.89
76384;SHT30;65204;48.606;7.598;2023-10-19T02:20:47;15.32;75.89
76384;SHT30;65204;48.606;7.598;2023-10-19T02:21:19;15.32;75.91
76384;SHT30;65204;48.606;7.598;2023-10-19T02:21:54;15.31;75.87
76384;SHT30;65204;48.606;7.598;2023-10-19T02:22:25;15.34;75.82
76384;SHT30;65204;48.606;7.598;2023-10-19T02:22:56;15.30;75.68
76384;SHT30;65204;48.606;7.598;2023-10-19T02:23:27;15.31;75.61
76384;SHT30;65204;48.606;7.598;2023-10-19T02:23:57;15.31;75.76
76384;SHT30;65204;48.606;7.598;2023-10-19T02:24:28;15.32;75.81
76384;SHT30;65204;48.606;7.598;2023-10-19T02:24:58;15.32;75.75
76384;SHT30;65204;48.606;7.598;2023-10-19T02:25:28;15.31;75.71
76384;SHT30;65204;48.606;7.598;2023-10-19T02:26:01;15.32;75.72
76384;SHT30;65204;48.606;7.598;2023-10-19T02:26:33;15.34;75.76
76384;SHT30;65204;48.606;7.598;2023-10-19T02:27:04;15.34;75.71
76384;SHT30;65204;48.606;7.598;2023-10-19T02:27:34;15.35;75.68
76384;SHT30;65204;48.606;7.598;2023-10-19T02:28:05;15.34;75.75
76384;SHT30;65204;48.606;7.598;2023-10-19T02:28:39;15.32;75.75
76384;SHT30;65204;48.606;7.598;2023-10-19T02:29:10;15.32;75.72
76384;SHT30;65204;48.606;7.598;2023-10-19T02:29:40;15.32;75.94
76384;SHT30;65204;48.606;7.598;2023-10-19T02:30:12;15.32;75.99
76384;SHT30;65204;48.606;7.598;2023-10-19T02:30:43;15.32;75.96
76384;SHT30;65204;48.606;7.598;2023-10-19T02:31:14;15.34;75.88
76384;SHT30;65204;48.606;7.598;2023-10-19T02:31:45;15.32;75.76
76384;SHT30;65204;48.606;7.598;2023-10-19T02:32:17;15.32;75.64
76384;SHT30;65204;48.606;7.598;2023-10-19T02:32:49;15.31;75.84
76384;SHT30;65204;48.606;7.598;2023-10-19T02:33:19;15.32;75.76
76384;SHT30;65204;48.606;7.598;2023-10-19T02:33:51;15.30;75.82
76384;SHT30;65204;48.606;7.598;2023-10-19T02:34:22;15.30;75.84
76384;SHT30;65204;48.606;7.598;2023-10-19T02:34:53;15.28;75.87
76384;SHT30;65204;48.606;7.598;2023-10-19T02:35:23;15.30;75.85
76384;SHT30;65204;48.606;7.598;2023-10-19T02:35:53;15.28;75.84
76384;SHT30;65204;48.606;7.598;2023-10-19T02:36:27;15.28;75.80
76384;SHT30;65204;48.606;7.598;2023-10-19T02:37:01;15.30;75.70
76384;SHT30;65204;48.606;7.598;2023-10-19T02:37:32;15.31;75.74
76384;SHT30;65204;48.606;7.598;2023-10-19T02:38:02;15.31;75.68
76384;SHT30;65204;48.606;7.598;2023-10-19T02:38:34;15.30;75.67
76384;SHT30;65204;48.606;7.598;2023-10-19T02:39:08;15.28;75.84
76384;SHT30;65204;48.606;7.598;2023-10-19T02:39:39;15.31;75.84
76384;SHT30;65204;48.606;7.598;2023-10-19T02:40:10;15.30;75.75
76384;SHT30;65204;48.606;7.598;2023-10-19T02:40:45;15.30;75.73
76384;SHT30;65204;48.606;7.598;2023-10-19T02:41:19;15.31;75.70
76384;SHT30;65204;48.606;7.598;2023-10-19T02:41:50;15.32;75.61
76384;SHT30;65204;48.606;7.598;2023-10-19T02:42:21;15.31;75.66
76384;SHT30;65204;48.606;7.598;2023-10-19T02:42:52;15.32;75.67
76384;SHT30;65204;48.606;7.598;2023-10-19T02:43:23;15.34;75.65
76384;SHT30;65204;48.606;7.598;2023-10-19T02:43:54;15.32;75.74
76384;SHT30;65204;48.606;7.598;2023-10-19T02:44:40;15.31;76.00
76384;SHT30;65204;48.606;7.598;2023-10-19T02:45:11;15.32;75.72
76384;SHT30;65204;48.606;7.598;2023-10-19T02:45:43;15.31;75.73
76384;SHT30;65204;48.606;7.598;2023-10-19T02:46:17;15.32;75.70
76384;SHT30;65204;48.606;7.598;2023-10-19T02:46:50;15.30;75.74
76384;SHT30;65204;48.606;7.598;2023-10-19T02:47:22;15.32;75.68
76384;SHT30;65204;48.606;7.598;2023-10-19T02:47:53;15.31;75.66
76384;SHT30;65204;48.606;7.598;2023-10-19T02:48:23;15.31;75.72
76384;SHT30;65204;48.606;7.598;2023-10-19T02:48:54;15.31;75.81
76384;SHT30;65204;48.606;7.598;2023-10-19T02:49:26;15.32;75.88
76384;SHT30;65204;48.606;7.598;2023-10-19T02:49:57;15.30;75.78
76384;SHT30;65204;48.606;7.598;2023-10-19T02:50:28;15.32;75.77
76384;SHT30;65204;48.606;7.598;2023-10-19T02:50:58;15.31;75.79
76384;SHT30;65204;48.606;7.598;2023-10-19T02:51:36;15.32;75.79
76384;SHT30;65204;48.606;7.598;2023-10-19T02:52:06;15.31;75.74
76384;SHT30;65204;48.606;7.598;2023-10-19T02:52:37;15.32;75.60
76384;SHT30;65204;48.606;7.598;2023-10-19T02:53:07;15.31;75.66
76384;SHT30;65204;48.606;7.598;2023-10-19T02:53:42;15.32;75.78
76384;SHT30;65204;48.606;7.598;2023-10-19T02:54:15;15.28;75.70
76384;SHT30;65204;48.606;7.598;2023-10-19T02:54:55;15.28;75.76
76384;SHT30;65204;48.606;7.598;2023-10-19T02:55:27;15.28;75.69
76384;SHT30;65204;48.606;7.598;2023-10-19T02:55:57;15.27;75.74
76384;SHT30;65204;48.606;7.598;2023-10-19T02:56:32;15.25;75.74
76384;SHT30;65204;48.606;7.598;2023-10-19T02:57:05;15.24;75.76
76384;SHT30;65204;48.606;7.598;2023-10-19T02:57:42;15.27;75.68
76384;SHT30;65204;48.606;7.598;2023-10-19T02:58:16;15.22;75.71
76384;SHT30;65204;48.606;7.598;2023-10-19T02:58:47;15.24;75.66
76384;SHT30;65204;48.606;7.598;2023-10-19T02:59:22;15.25;75.63
76384;SHT30;65204;48.606;7.598;2023-10-19T02:59:52;15.25;75.59
76384;SHT30;65204;48.606;7.598;2023-10-19T03:00:23;15.25;75.57
76384;SHT30;65204;48.606;7.598;2023-10-19T03:01:02;15.21;75.60
76384;SHT30;65204;48.606;7.598;2023-10-19T03:01:33;15.22;75.59
76384;SHT30;65204;48.606;7.598;2023-10-19T03:02:04;15.22;75.59
76384;SHT30;65204;48.606;7.598;2023-10-19T03:02:48;15.18;75.77
76384;SHT30;65204;48.606;7.598;2023-10-19T03:03:18;15.20;75.70
76384;SHT30;65204;48.606;7.598;2023-10-19T03:03:50;15.20;75.63
76384;SHT30;65204;48.606;7.598;2023-10-19T03:04:21;15.20;75.57
76384;SHT30;65204;48.606;7.598;2023-10-19T03:04:54;15.18;75.50
76384;SHT30;65204;48.606;7.598;2023-10-19T03:05:25;15.21;75.58
76384;SHT30;65204;48.606;7.598;2023-10-19T03:05:56;15.22;75.55
76384;SHT30;65204;48.606;7.598;2023-10-19T03:06:30;15.20;75.51
76384;SHT30;65204;48.606;7.598;2023-10-19T03:07:05;15.20;75.46
76384;SHT30;65204;48.606;7.598;2023-10-19T03:07:35;15.21;75.44
76384;SHT30;65204;48.606;7.598;2023-10-19T03:08:06;15.17;75.34
76384;SHT30;65204;48.606;7.598;2023-10-19T03:08:37;15.21;75.33
76384;SHT30;65204;48.606;7.598;2023-10-19T03:09:08;15.20;75.23
76384;SHT30;65204;48.606;7.598;2023-10-19T03:10:00;15.17;75.24
76384;SHT30;65204;48.606;7.598;2023-10-19T03:10:32;15.20;75.25
76384;SHT30;65204;48.606;7.598;2023-10-19T03:11:13;15.18;75.24
76384;SHT30;65204;48.606;7.598;2023-10-19T03:11:44;15.17;75.19
76384;SHT30;65204;48.606;7.598;2023-10-19T03:12:16;15.17;75.21
76384;SHT30;65204;48.606;7.598;2023-10-19T03:12:47;15.18;75.21
76384;SHT30;65204;48.606;7.598;2023-10-19T03:13:17;15.20;75.20
76384;SHT30;65204;48.606;7.598;2023-10-19T03:13:47;15.18;75.23
76384;SHT30;65204;48.606;7.598;2023-10-19T03:14:20;15.18;75.25
76384;SHT30;65204;48.606;7.598;2023-10-19T03:14:50;15.21;75.24
76384;SHT30;65204;48.606;7.598;2023-10-19T03:15:21;15.18;75.28
76384;SHT30;65204;48.606;7.598;2023-10-19T03:15:51;15.21;75.25
76384;SHT30;65204;48.606;7.598;2023-10-19T03:16:23;15.20;75.15
76384;SHT30;65204;48.606;7.598;2023-10-19T03:16:54;15.17;75.10
76384;SHT30;65204;48.606;7.598;2023-10-19T03:17:28;15.15;75.19
76384;SHT30;65204;48.606;7.598;2023-10-19T03:18:00;15.17;75.17
76384;SHT30;65204;48.606;7.598;2023-10-19T03:18:31;15.15;75.16
76384;SHT30;65204;48.606;7.598;2023-10-19T03:19:01;15.17;75.19
76384;SHT30;65204;48.606;7.598;2023-10-19T03:19:32;15.17;75.20
76384;SHT30;65204;48.606;7.598;2023-10-19T03:20:05;15.17;75.11
76384;SHT30;65204;48.606;7.598;2023-10-19T03:20:40;15.15;75.06
76384;SHT30;65204;48.606;7.598;2023-10-19T03:21:11;15.12;75.05
76384;SHT30;65204;48.606;7.598;2023-10-19T03:21:41;15.12;75.03
76384;SHT30;65204;48.606;7.598;2023-10-19T03:22:13;15.12;75.09
76384;SHT30;65204;48.606;7.598;2023-10-19T03:22:44;15.12;75.10
76384;SHT30;65204;48.606;7.598;2023-10-19T03:23:16;15.14;75.12
76384;SHT30;65204;48.606;7.598;2023-10-19T03:23:46;15.12;75.09
76384;SHT30;65204;48.606;7.598;2023-10-19T03:24:18;15.11;75.06
76384;SHT30;65204;48.606;7.598;2023-10-19T03:25:07;15.08;75.05
76384;SHT30;65204;48.606;7.598;2023-10-19T03:25:56;15.07;75.21
76384;SHT30;65204;48.606;7.598;2023-10-19T03:26:45;15.05;75.26
76384;SHT30;65204;48.606;7.598;2023-10-19T03:27:18;15.04;75.15
76384;SHT30;65204;48.606;7.598;2023-10-19T03:27:51;15.04;75.10
76384;SHT30;65204;48.606;7.598;2023-10-19T03:28:23;15.04;75.13
76384;SHT30;65204;48.606;7.598;2023-10-19T03:28:57;15.05;75.14
76384;SHT30;65204;48.606;7.598;2023-10-19T03:29:39;15.07;75.05
76384;SHT30;65204;48.606;7.598;2023-10-19T03:30:10;15.02;75.02
76384;SHT30;65204;48.606;7.598;2023-10-19T03:30:46;15.04;75.07
76384;SHT30;65204;48.606;7.598;2023-10-19T03:31:17;15.04;75.19
76384;SHT30;65204;48.606;7.598;2023-10-19T03:31:50;15.01;75.12
76384;SHT30;65204;48.606;7.598;2023-10-19T03:32:22;15.01;75.11
76384;SHT30;65204;48.606;7.598;2023-10-19T03:32:56;15.04;75.10
76384;SHT30;65204;48.606;7.598;2023-10-19T03:33:29;15.02;75.10
76384;SHT30;65204;48.606;7.598;2023-10-19T03:33:59;15.00;75.00
76384;SHT30;65204;48.606;7.598;2023-10-19T03:34:35;15.02;74.95
76384;SHT30;65204;48.606;7.598;2023-10-19T03:35:06;15.02;74.88
76384;SHT30;65204;48.606;7.598;2023-10-19T03:35:37;15.02;74.86
76384;SHT30;65204;48.606;7.598;2023-10-19T03:36:08;15.05;74.87
76384;SHT30;65204;48.606;7.598;2023-10-19T03:36:43;15.02;74.89
76384;SHT30;65204;48.606;7.598;2023-10-19T03:37:13;15.04;74.91